sensor_id;sensor_type;location;lat;lon;timestamp;P1;P2;P0
72509;PMS5003;60532;56.114;40.350;2023-08-06T00:01:49;11.67;10.00;7.00
72509;PMS5003;60532;56.114;40.350;2023-08-06T00:03:50;14.00;14.00;10.00
72509;PMS5003;60532;56.114;40.350;2023-08-06T00:05:50;17.00;15.33;10.00
72509;PMS5003;60532;56.114;40.350;2023-08-06T00:07:51;13.33;13.33;10.00
72509;PMS5003;60532;56.114;40.350;2023-08-06T00:09:51;14.67;12.67;9.00
72509;PMS5003;60532;56.114;40.350;2023-08-06T00:11:51;18.00;15.00;10.33
72509;PMS5003;60532;56.114;40.350;2023-08-06T00:13:52;13.33;12.33;11.00
72509;PMS5003;60532;56.114;40.350;2023-08-06T00:15:52;14.33;11.33;8.67
72509;PMS5003;60532;56.114;40.350;2023-08-06T00:17:53;17.00;16.67;11.00
72509;PMS5003;60532;56.114;40.350;2023-08-06T00:19:53;14.00;14.00;10.00
72509;PMS5003;60532;56.114;40.350;2023-08-06T00:21:53;14.00;14.00;9.33
72509;PMS5003;60532;56.114;40.350;2023-08-06T00:23:54;15.33;15.00;11.00
72509;PMS5003;60532;56.114;40.350;2023-08-06T00:25:54;16.67;15.67;10.00
72509;PMS5003;60532;56.114;40.350;2023-08-06T00:27:55;19.00;16.00;10.67
72509;PMS5003;60532;56.114;40.350;2023-08-06T00:29:56;16.50;16.00;11.50
72509;PMS5003;60532;56.114;40.350;2023-08-06T00:31:57;18.67;18.33;12.67
72509;PMS5003;60532;56.114;40.350;2023-08-06T00:33:57;16.67;16.67;12.00
72509;PMS5003;60532;56.114;40.350;2023-08-06T00:35:57;17.67;16.67;11.00
72509;PMS5003;60532;56.114;40.350;2023-08-06T00:37:58;19.00;16.67;12.00
72509;PMS5003;60532;56.114;40.350;2023-08-06T00:39:58;19.67;18.33;12.33
72509;PMS5003;60532;56.114;40.350;2023-08-06T00:41:59;18.00;18.00;13.00
72509;PMS5003;60532;56.114;40.350;2023-08-06T00:43:59;19.33;19.33;13.00
72509;PMS5003;60532;56.114;40.350;2023-08-06T00:45:59;17.67;17.67;13.67
72509;PMS5003;60532;56.114;40.350;2023-08-06T00:48:00;17.00;15.67;10.67
72509;PMS5003;60532;56.114;40.350;2023-08-06T00:50:01;15.00;13.67;11.33
72509;PMS5003;60532;56.114;40.350;2023-08-06T00:52:02;18.67;15.00;10.67
72509;PMS5003;60532;56.114;40.350;2023-08-06T00:54:02;18.50;15.50;11.00
72509;PMS5003;60532;56.114;40.350;2023-08-06T00:56:03;15.67;15.67;10.67
72509;PMS5003;60532;56.114;40.350;2023-08-06T00:58:04;16.33;14.67;9.67
72509;PMS5003;60532;56.114;40.350;2023-08-06T01:00:05;14.00;11.75;9.00
72509;PMS5003;60532;56.114;40.350;2023-08-06T01:02:05;14.75;14.50;10.50
72509;PMS5003;60532;56.114;40.350;2023-08-06T01:04:06;15.00;10.25;6.50
72509;PMS5003;60532;56.114;40.350;2023-08-06T01:06:07;15.00;14.33;9.67
72509;PMS5003;60532;56.114;40.350;2023-08-06T01:16:52;15.75;15.00;9.50
72509;PMS5003;60532;56.114;40.350;2023-08-06T01:18:53;13.00;13.00;10.75
72509;PMS5003;60532;56.114;40.350;2023-08-06T01:20:54;16.67;14.67;9.00
72509;PMS5003;60532;56.114;40.350;2023-08-06T01:22:54;14.00;14.00;9.33
72509;PMS5003;60532;56.114;40.350;2023-08-06T01:24:55;12.33;12.33;9.33
72509;PMS5003;60532;56.114;40.350;2023-08-06T01:27:02;10.33;10.00;8.33
72509;PMS5003;60532;56.114;40.350;2023-08-06T01:29:10;10.75;10.25;7.75
72509;PMS5003;60532;56.114;40.350;2023-08-06T01:31:15;10.00;10.00;7.00
72509;PMS5003;60532;56.114;40.350;2023-08-06T01:33:16;13.50;12.50;9.00
72509;PMS5003;60532;56.114;40.350;2023-08-06T01:35:19;11.25;11.25;7.50
72509;PMS5003;60532;56.114;40.350;2023-08-06T01:37:19;13.67;13.00;8.67
72509;PMS5003;60532;56.114;40.350;2023-08-06T01:39:20;13.67;13.67;8.00
72509;PMS5003;60532;56.114;40.350;2023-08-06T01:41:21;10.00;10.00;6.50
72509;PMS5003;60532;56.114;40.350;2023-08-06T01:43:21;14.00;12.67;9.00
72509;PMS5003;60532;56.114;40.350;2023-08-06T01:45:22;13.00;13.00;9.00
72509;PMS5003;60532;56.114;40.350;2023-08-06T01:47:22;12.00;12.00;7.00
72509;PMS5003;60532;56.114;40.350;2023-08-06T01:49:22;13.00;13.00;8.67
72509;PMS5003;60532;56.114;40.350;2023-08-06T01:51:23;16.67;15.00;10.33
72509;PMS5003;60532;56.114;40.350;2023-08-06T01:53:23;14.33;11.33;9.00
72509;PMS5003;60532;56.114;40.350;2023-08-06T01:55:24;13.00;13.00;8.67
72509;PMS5003;60532;56.114;40.350;2023-08-06T01:57:24;13.67;12.67;8.33
72509;PMS5003;60532;56.114;40.350;2023-08-06T01:59:25;11.00;11.00;9.00
72509;PMS5003;60532;56.114;40.350;2023-08-06T02:01:25;12.00;12.00;10.00
72509;PMS5003;60532;56.114;40.350;2023-08-06T02:03:25;10.67;10.67;8.33
72509;PMS5003;60532;56.114;40.350;2023-08-06T02:05:26;13.33;11.67;8.33
72509;PMS5003;60532;56.114;40.350;2023-08-06T02:07:26;12.33;10.67;8.00
72509;PMS5003;60532;56.114;40.350;2023-08-06T02:09:27;11.33;10.33;9.00
72509;PMS5003;60532;56.114;40.350;2023-08-06T02:11:27;11.33;11.33;7.00
72509;PMS5003;60532;56.114;40.350;2023-08-06T02:13:27;13.33;12.00;8.00
72509;PMS5003;60532;56.114;40.350;2023-08-06T02:15:28;12.67;12.00;8.67
72509;PMS5003;60532;56.114;40.350;2023-08-06T02:17:28;12.33;10.67;8.00
72509;PMS5003;60532;56.114;40.350;2023-08-06T02:19:29;11.00;11.00;8.00
72509;PMS5003;60532;56.114;40.350;2023-08-06T02:21:29;9.67;9.67;7.67
72509;PMS5003;60532;56.114;40.350;2023-08-06T02:23:30;14.33;13.33;8.67
72509;PMS5003;60532;56.114;40.350;2023-08-06T02:25:30;12.67;11.67;8.33
72509;PMS5003;60532;56.114;40.350;2023-08-06T02:27:30;15.00;13.33;8.33
72509;PMS5003;60532;56.114;40.350;2023-08-06T02:29:31;11.33;11.00;7.00
72509;PMS5003;60532;56.114;40.350;2023-08-06T02:31:31;11.67;10.33;7.33
72509;PMS5003;60532;56.114;40.350;2023-08-06T02:33:32;12.00;10.33;7.00
72509;PMS5003;60532;56.114;40.350;2023-08-06T02:35:32;10.00;10.00;7.33
72509;PMS5003;60532;56.114;40.350;2023-08-06T02:37:33;12.33;11.00;9.00
72509;PMS5003;60532;56.114;40.350;2023-08-06T02:39:34;14.75;12.25;8.75
72509;PMS5003;60532;56.114;40.350;2023-08-06T02:41:35;11.75;11.75;9.00
72509;PMS5003;60532;56.114;40.350;2023-08-06T02:43:36;10.00;10.00;7.00
72509;PMS5003;60532;56.114;40.350;2023-08-06T02:45:36;11.00;11.00;6.67
72509;PMS5003;60532;56.114;40.350;2023-08-06T02:47:37;12.00;11.33;7.00
72509;PMS5003;60532;56.114;40.350;2023-08-06T02:49:37;13.00;13.00;8.00
72509;PMS5003;60532;56.114;40.350;2023-08-06T02:51:37;13.33;11.33;8.00
72509;PMS5003;60532;56.114;40.350;2023-08-06T02:53:38;13.67;13.00;8.00
72509;PMS5003;60532;56.114;40.350;2023-08-06T02:55:38;10.67;10.67;8.00
72509;PMS5003;60532;56.114;40.350;2023-08-06T02:57:45;12.75;12.75;8.75
72509;PMS5003;60532;56.114;40.350;2023-08-06T02:59:45;15.67;14.00;10.33
72509;PMS5003;60532;56.114;40.350;2023-08-06T03:01:45;12.33;12.33;9.00
72509;PMS5003;60532;56.114;40.350;2023-08-06T03:03:46;14.00;12.25;8.00
72509;PMS5003;60532;56.114;40.350;2023-08-06T03:05:51;15.33;13.00;8.00
72509;PMS5003;60532;56.114;40.350;2023-08-06T03:07:51;13.50;12.75;9.25
72509;PMS5003;60532;56.114;40.350;2023-08-06T03:09:52;14.67;12.33;8.00
72509;PMS5003;60532;56.114;40.350;2023-08-06T03:11:53;14.75;12.75;7.25
72509;PMS5003;60532;56.114;40.350;2023-08-06T03:13:53;13.33;9.67;5.33
72509;PMS5003;60532;56.114;40.350;2023-08-06T03:15:54;11.67;11.67;7.00
72509;PMS5003;60532;56.114;40.350;2023-08-06T03:17:55;16.25;13.25;8.00
72509;PMS5003;60532;56.114;40.350;2023-08-06T03:19:56;10.33;10.00;4.67
72509;PMS5003;60532;56.114;40.350;2023-08-06T03:21:56;15.00;13.00;9.67
72509;PMS5003;60532;56.114;40.350;2023-08-06T03:23:57;12.67;12.00;6.33
72509;PMS5003;60532;56.114;40.350;2023-08-06T03:26:03;12.67;12.00;9.00
72509;PMS5003;60532;56.114;40.350;2023-08-06T03:28:04;12.50;11.00;8.00
72509;PMS5003;60532;56.114;40.350;2023-08-06T03:30:04;13.67;12.00;6.67
72509;PMS5003;60532;56.114;40.350;2023-08-06T03:32:05;10.00;10.00;7.00
72509;PMS5003;60532;56.114;40.350;2023-08-06T03:34:06;13.00;11.33;8.00
72509;PMS5003;60532;56.114;40.350;2023-08-06T03:36:06;16.00;15.00;8.33
72509;PMS5003;60532;56.114;40.350;2023-08-06T03:38:07;12.50;12.00;8.50
72509;PMS5003;60532;56.114;40.350;2023-08-06T03:40:07;12.67;12.00;7.67
72509;PMS5003;60532;56.114;40.350;2023-08-06T03:42:08;13.00;11.33;8.00
72509;PMS5003;60532;56.114;40.350;2023-08-06T03:44:08;12.00;10.33;7.67
72509;PMS5003;60532;56.114;40.350;2023-08-06T03:46:09;13.33;13.33;9.33
72509;PMS5003;60532;56.114;40.350;2023-08-06T03:48:09;13.67;12.67;8.33
72509;PMS5003;60532;56.114;40.350;2023-08-06T03:50:09;12.00;12.00;7.67
72509;PMS5003;60532;56.114;40.350;2023-08-06T03:52:10;15.67;14.00;8.67
72509;PMS5003;60532;56.114;40.350;2023-08-06T03:54:10;13.00;13.00;8.00
72509;PMS5003;60532;56.114;40.350;2023-08-06T03:56:11;13.67;11.67;8.00
72509;PMS5003;60532;56.114;40.350;2023-08-06T03:58:11;11.67;10.33;7.33
72509;PMS5003;60532;56.114;40.350;2023-08-06T04:00:12;14.00;13.00;9.00
72509;PMS5003;60532;56.114;40.350;2023-08-06T04:02:12;14.00;12.33;8.00
72509;PMS5003;60532;56.114;40.350;2023-08-06T04:04:13;13.67;12.00;9.00
72509;PMS5003;60532;56.114;40.350;2023-08-06T04:06:13;12.00;12.00;8.67
72509;PMS5003;60532;56.114;40.350;2023-08-06T04:08:14;14.33;13.67;8.00
72509;PMS5003;60532;56.114;40.350;2023-08-06T04:10:14;11.67;11.67;8.00
72509;PMS5003;60532;56.114;40.350;2023-08-06T04:12:14;11.00;11.00;7.33
72509;PMS5003;60532;56.114;40.350;2023-08-06T04:14:15;13.67;13.00;8.33
72509;PMS5003;60532;56.114;40.350;2023-08-06T04:16:15;13.50;12.00;8.00
72509;PMS5003;60532;56.114;40.350;2023-08-06T04:18:16;9.50;9.50;7.75
72509;PMS5003;60532;56.114;40.350;2023-08-06T04:20:17;13.60;13.20;7.80
72509;PMS5003;60532;56.114;40.350;2023-08-06T04:22:17;10.00;10.00;5.50
72509;PMS5003;60532;56.114;40.350;2023-08-06T04:24:18;12.50;12.50;7.50
72509;PMS5003;60532;56.114;40.350;2023-08-06T04:26:18;9.50;9.50;7.00
72509;PMS5003;60532;56.114;40.350;2023-08-06T04:28:19;14.00;13.00;8.00
72509;PMS5003;60532;56.114;40.350;2023-08-06T04:30:19;11.80;10.20;7.00
72509;PMS5003;60532;56.114;40.350;2023-08-06T04:32:20;8.50;8.50;5.75
72509;PMS5003;60532;56.114;40.350;2023-08-06T04:34:20;9.50;9.50;6.50
72509;PMS5003;60532;56.114;40.350;2023-08-06T04:36:20;9.50;9.50;6.00
72509;PMS5003;60532;56.114;40.350;2023-08-06T04:38:22;14.33;13.00;8.67
72509;PMS5003;60532;56.114;40.350;2023-08-06T04:40:23;9.00;9.00;6.80
72509;PMS5003;60532;56.114;40.350;2023-08-06T04:42:23;10.33;10.33;8.67
72509;PMS5003;60532;56.114;40.350;2023-08-06T04:44:24;10.67;10.67;8.67
72509;PMS5003;60532;56.114;40.350;2023-08-06T04:46:24;9.33;9.33;6.67
72509;PMS5003;60532;56.114;40.350;2023-08-06T04:48:25;12.00;12.00;8.00
72509;PMS5003;60532;56.114;40.350;2023-08-06T04:50:25;14.33;12.67;8.67
72509;PMS5003;60532;56.114;40.350;2023-08-06T04:52:26;12.00;12.00;7.67
72509;PMS5003;60532;56.114;40.350;2023-08-06T04:54:28;15.75;13.75;9.25
72509;PMS5003;60532;56.114;40.350;2023-08-06T04:56:28;15.67;14.33;9.67
72509;PMS5003;60532;56.114;40.350;2023-08-06T04:58:29;14.00;12.00;8.00
72509;PMS5003;60532;56.114;40.350;2023-08-06T05:00:29;11.33;11.33;8.00
72509;PMS5003;60532;56.114;40.350;2023-08-06T05:02:30;14.33;14.33;8.00
72509;PMS5003;60532;56.114;40.350;2023-08-06T05:04:32;11.50;11.00;8.00
72509;PMS5003;60532;56.114;40.350;2023-08-06T05:06:33;11.67;11.33;8.67
72509;PMS5003;60532;56.114;40.350;2023-08-06T05:08:33;12.75;12.75;8.00
72509;PMS5003;60532;56.114;40.350;2023-08-06T05:10:33;14.75;12.00;8.75
72509;PMS5003;60532;56.114;40.350;2023-08-06T05:12:34;11.50;11.50;8.00
72509;PMS5003;60532;56.114;40.350;2023-08-06T05:14:34;12.50;12.50;8.50
72509;PMS5003;60532;56.114;40.350;2023-08-06T05:16:35;13.00;12.00;8.75
72509;PMS5003;60532;56.114;40.350;2023-08-06T05:18:35;10.75;10.75;6.75
72509;PMS5003;60532;56.114;40.350;2023-08-06T05:20:40;13.80;12.80;8.00
72509;PMS5003;60532;56.114;40.350;2023-08-06T05:22:41;13.40;12.00;8.60
72509;PMS5003;60532;56.114;40.350;2023-08-06T05:24:41;8.00;8.00;5.00
72509;PMS5003;60532;56.114;40.350;2023-08-06T05:26:42;13.25;11.50;8.00
72509;PMS5003;60532;56.114;40.350;2023-08-06T05:28:46;15.00;12.20;8.20
72509;PMS5003;60532;56.114;40.350;2023-08-06T05:30:47;14.00;12.25;8.00
72509;PMS5003;60532;56.114;40.350;2023-08-06T05:32:47;12.75;11.00;7.75
72509;PMS5003;60532;56.114;40.350;2023-08-06T05:34:47;10.00;10.00;8.00
72509;PMS5003;60532;56.114;40.350;2023-08-06T05:36:48;11.75;11.75;8.50
72509;PMS5003;60532;56.114;40.350;2023-08-06T05:38:48;13.00;11.75;8.25
72509;PMS5003;60532;56.114;40.350;2023-08-06T05:40:49;12.00;10.25;7.00
72509;PMS5003;60532;56.114;40.350;2023-08-06T05:42:49;9.50;9.50;7.50
72509;PMS5003;60532;56.114;40.350;2023-08-06T05:44:49;11.75;11.00;7.25
72509;PMS5003;60532;56.114;40.350;2023-08-06T05:46:50;12.25;10.50;7.75
72509;PMS5003;60532;56.114;40.350;2023-08-06T05:48:50;9.00;8.00;4.00
72509;PMS5003;60532;56.114;40.350;2023-08-06T05:50:51;12.00;11.00;7.40
72509;PMS5003;60532;56.114;40.350;2023-08-06T05:52:52;11.00;10.20;7.20
72509;PMS5003;60532;56.114;40.350;2023-08-06T05:54:52;14.00;12.00;7.60
72509;PMS5003;60532;56.114;40.350;2023-08-06T05:56:53;11.00;11.00;7.00
72509;PMS5003;60532;56.114;40.350;2023-08-06T05:58:53;12.50;11.50;7.00
72509;PMS5003;60532;56.114;40.350;2023-08-06T06:00:54;10.25;9.75;7.25
72509;PMS5003;60532;56.114;40.350;2023-08-06T06:02:54;12.00;10.75;7.00
72509;PMS5003;60532;56.114;40.350;2023-08-06T06:04:55;12.00;12.00;8.25
72509;PMS5003;60532;56.114;40.350;2023-08-06T06:06:55;11.75;10.25;7.25
72509;PMS5003;60532;56.114;40.350;2023-08-06T06:08:55;12.50;9.50;7.00
72509;PMS5003;60532;56.114;40.350;2023-08-06T06:10:56;18.75;15.00;9.00
72509;PMS5003;60532;56.114;40.350;2023-08-06T06:12:56;15.25;12.00;8.00
72509;PMS5003;60532;56.114;40.350;2023-08-06T06:14:57;12.50;9.50;4.75
72509;PMS5003;60532;56.114;40.350;2023-08-06T06:16:58;14.75;12.00;9.00
72509;PMS5003;60532;56.114;40.350;2023-08-06T06:18:59;16.00;10.80;7.60
72509;PMS5003;60532;56.114;40.350;2023-08-06T06:20:59;14.00;12.50;8.00
72509;PMS5003;60532;56.114;40.350;2023-08-06T06:22:59;9.75;9.75;6.00
72509;PMS5003;60532;56.114;40.350;2023-08-06T06:25:00;6.25;6.25;6.00
72509;PMS5003;60532;56.114;40.350;2023-08-06T06:27:00;14.50;10.50;6.50
72509;PMS5003;60532;56.114;40.350;2023-08-06T06:29:01;21.75;12.75;7.00
72509;PMS5003;60532;56.114;40.350;2023-08-06T06:31:01;15.25;12.50;7.00
72509;PMS5003;60532;56.114;40.350;2023-08-06T06:33:02;18.00;13.00;7.50
72509;PMS5003;60532;56.114;40.350;2023-08-06T06:35:02;16.00;14.00;8.75
72509;PMS5003;60532;56.114;40.350;2023-08-06T06:37:03;17.00;10.25;7.25
72509;PMS5003;60532;56.114;40.350;2023-08-06T06:39:03;16.25;11.25;7.75
72509;PMS5003;60532;56.114;40.350;2023-08-06T06:41:04;16.50;11.50;8.50
72509;PMS5003;60532;56.114;40.350;2023-08-06T06:43:04;15.00;12.50;7.75
72509;PMS5003;60532;56.114;40.350;2023-08-06T06:45:05;15.00;12.00;8.00
72509;PMS5003;60532;56.114;40.350;2023-08-06T06:47:05;9.40;9.40;6.20
72509;PMS5003;60532;56.114;40.350;2023-08-06T06:49:06;10.25;8.00;5.00
72509;PMS5003;60532;56.114;40.350;2023-08-06T06:51:06;12.25;9.75;5.25
72509;PMS5003;60532;56.114;40.350;2023-08-06T06:53:07;11.00;9.00;6.50
72509;PMS5003;60532;56.114;40.350;2023-08-06T06:55:07;11.50;10.25;6.00
72509;PMS5003;60532;56.114;40.350;2023-08-06T06:57:08;8.00;8.00;4.75
72509;PMS5003;60532;56.114;40.350;2023-08-06T06:59:08;10.00;10.00;6.00
72509;PMS5003;60532;56.114;40.350;2023-08-06T07:01:09;6.50;6.50;4.00
72509;PMS5003;60532;56.114;40.350;2023-08-06T07:03:11;7.40;6.20;3.40
72509;PMS5003;60532;56.114;40.350;2023-08-06T07:05:12;5.75;5.75;4.00
72509;PMS5003;60532;56.114;40.350;2023-08-06T07:07:12;8.00;8.00;5.00
72509;PMS5003;60532;56.114;40.350;2023-08-06T07:09:13;9.50;9.00;6.00
72509;PMS5003;60532;56.114;40.350;2023-08-06T07:11:13;8.00;7.75;5.75
72509;PMS5003;60532;56.114;40.350;2023-08-06T07:13:13;10.00;9.25;5.00
72509;PMS5003;60532;56.114;40.350;2023-08-06T07:15:14;9.75;9.75;6.50
72509;PMS5003;60532;56.114;40.350;2023-08-06T07:17:14;12.25;10.00;6.25
72509;PMS5003;60532;56.114;40.350;2023-08-06T07:19:15;8.00;7.75;5.00
72509;PMS5003;60532;56.114;40.350;2023-08-06T07:21:15;10.75;8.75;5.75
72509;PMS5003;60532;56.114;40.350;2023-08-06T07:23:16;8.75;7.25;5.00
72509;PMS5003;60532;56.114;40.350;2023-08-06T07:25:16;11.75;8.75;7.00
72509;PMS5003;60532;56.114;40.350;2023-08-06T07:27:17;8.25;7.50;6.00
72509;PMS5003;60532;56.114;40.350;2023-08-06T07:29:17;7.75;7.75;5.00
72509;PMS5003;60532;56.114;40.350;2023-08-06T07:31:21;11.80;8.80;5.60
72509;PMS5003;60532;56.114;40.350;2023-08-06T07:33:21;9.25;8.75;5.50
72509;PMS5003;60532;56.114;40.350;2023-08-06T07:35:22;10.00;10.00;6.00
72509;PMS5003;60532;56.114;40.350;2023-08-06T07:37:22;7.00;7.00;4.00
72509;PMS5003;60532;56.114;40.350;2023-08-06T07:39:23;6.75;6.75;5.00
72509;PMS5003;60532;56.114;40.350;2023-08-06T07:41:23;8.67;8.67;5.67
72509;PMS5003;60532;56.114;40.350;2023-08-06T07:43:24;9.00;9.00;6.00
72509;PMS5003;60532;56.114;40.350;2023-08-06T07:45:24;6.50;6.50;5.00
72509;PMS5003;60532;56.114;40.350;2023-08-06T07:47:26;7.00;7.00;4.40
72509;PMS5003;60532;56.114;40.350;2023-08-06T07:49:27;8.67;8.67;5.00
72509;PMS5003;60532;56.114;40.350;2023-08-06T07:51:27;6.67;5.33;3.67
72509;PMS5003;60532;56.114;40.350;2023-08-06T07:53:28;10.67;9.00;7.00
72509;PMS5003;60532;56.114;40.350;2023-08-06T07:55:29;8.00;8.00;6.00
72509;PMS5003;60532;56.114;40.350;2023-08-06T07:57:33;9.67;7.67;6.00
72509;PMS5003;60532;56.114;40.350;2023-08-06T07:59:34;9.25;9.00;6.75
72509;PMS5003;60532;56.114;40.350;2023-08-06T08:01:34;8.67;8.67;5.67
72509;PMS5003;60532;56.114;40.350;2023-08-06T08:03:35;9.67;8.67;6.00
72509;PMS5003;60532;56.114;40.350;2023-08-06T08:05:35;6.33;6.33;6.33
72509;PMS5003;60532;56.114;40.350;2023-08-06T08:07:36;4.00;4.00;1.00
72509;PMS5003;60532;56.114;40.350;2023-08-06T08:09:36;7.67;7.67;5.00
72509;PMS5003;60532;56.114;40.350;2023-08-06T08:11:36;8.33;8.33;4.33
72509;PMS5003;60532;56.114;40.350;2023-08-06T08:13:37;9.00;8.00;5.33
72509;PMS5003;60532;56.114;40.350;2023-08-06T08:15:37;10.00;9.00;6.00
72509;PMS5003;60532;56.114;40.350;2023-08-06T08:17:38;10.67;9.67;5.67
72509;PMS5003;60532;56.114;40.350;2023-08-06T08:19:39;9.00;8.00;6.00
72509;PMS5003;60532;56.114;40.350;2023-08-06T08:21:40;8.75;8.75;6.00
72509;PMS5003;60532;56.114;40.350;2023-08-06T08:23:40;4.00;4.00;4.00
72509;PMS5003;60532;56.114;40.350;2023-08-06T08:25:42;11.50;9.50;5.75
72509;PMS5003;60532;56.114;40.350;2023-08-06T08:27:42;11.00;11.00;6.00
72509;PMS5003;60532;56.114;40.350;2023-08-06T08:29:43;9.67;8.33;5.33
72509;PMS5003;60532;56.114;40.350;2023-08-06T08:31:43;8.00;8.00;5.00
72509;PMS5003;60532;56.114;40.350;2023-08-06T08:33:44;12.00;9.75;6.00
72509;PMS5003;60532;56.114;40.350;2023-08-06T08:35:45;8.75;7.75;6.00
72509;PMS5003;60532;56.114;40.350;2023-08-06T08:37:47;8.50;8.00;5.75
72509;PMS5003;60532;56.114;40.350;2023-08-06T08:39:47;8.00;8.00;6.00
72509;PMS5003;60532;56.114;40.350;2023-08-06T08:41:48;7.33;7.33;5.00
72509;PMS5003;60532;56.114;40.350;2023-08-06T08:43:49;9.00;9.00;7.00
72509;PMS5003;60532;56.114;40.350;2023-08-06T08:45:51;7.75;7.75;5.25
72509;PMS5003;60532;56.114;40.350;2023-08-06T08:47:51;9.75;9.75;6.00
72509;PMS5003;60532;56.114;40.350;2023-08-06T08:49:53;7.33;7.33;6.00
72509;PMS5003;60532;56.114;40.350;2023-08-06T08:51:54;10.00;10.00;7.00
72509;PMS5003;60532;56.114;40.350;2023-08-06T08:53:55;10.00;7.60;4.00
72509;PMS5003;60532;56.114;40.350;2023-08-06T08:55:58;9.25;9.25;6.00
72509;PMS5003;60532;56.114;40.350;2023-08-06T08:57:59;9.00;8.00;5.00
72509;PMS5003;60532;56.114;40.350;2023-08-06T08:59:59;5.00;5.00;4.67
72509;PMS5003;60532;56.114;40.350;2023-08-06T09:02:00;9.00;9.00;6.00
72509;PMS5003;60532;56.114;40.350;2023-08-06T09:04:01;8.75;8.75;6.25
72509;PMS5003;60532;56.114;40.350;2023-08-06T09:06:03;10.00;10.00;6.75
72509;PMS5003;60532;56.114;40.350;2023-08-06T09:08:04;10.00;10.00;7.00
72509;PMS5003;60532;56.114;40.350;2023-08-06T09:10:05;9.75;9.75;7.00
72509;PMS5003;60532;56.114;40.350;2023-08-06T09:12:15;8.25;8.25;6.25
72509;PMS5003;60532;56.114;40.350;2023-08-06T09:14:15;9.25;9.25;6.25
72509;PMS5003;60532;56.114;40.350;2023-08-06T09:16:16;6.67;6.67;5.00
72509;PMS5003;60532;56.114;40.350;2023-08-06T09:18:24;7.00;6.67;5.00
72509;PMS5003;60532;56.114;40.350;2023-08-06T09:20:25;8.75;8.25;5.75
72509;PMS5003;60532;56.114;40.350;2023-08-06T09:22:25;11.00;9.00;7.33
72509;PMS5003;60532;56.114;40.350;2023-08-06T09:24:33;7.00;7.00;5.00
72509;PMS5003;60532;56.114;40.350;2023-08-06T09:26:39;10.25;8.75;5.75
72509;PMS5003;60532;56.114;40.350;2023-08-06T09:28:39;7.00;7.00;5.00
72509;PMS5003;60532;56.114;40.350;2023-08-06T09:30:42;7.25;7.25;6.00
72509;PMS5003;60532;56.114;40.350;2023-08-06T09:32:45;7.00;7.00;4.00
72509;PMS5003;60532;56.114;40.350;2023-08-06T09:34:47;8.75;8.75;4.50
72509;PMS5003;60532;56.114;40.350;2023-08-06T09:36:55;8.00;7.25;5.00
72509;PMS5003;60532;56.114;40.350;2023-08-06T09:38:56;9.33;9.33;6.67
72509;PMS5003;60532;56.114;40.350;2023-08-06T09:40:56;7.25;7.25;4.50
72509;PMS5003;60532;56.114;40.350;2023-08-06T09:42:57;9.00;9.00;6.00
72509;PMS5003;60532;56.114;40.350;2023-08-06T09:45:06;7.00;7.00;5.00
72509;PMS5003;60532;56.114;40.350;2023-08-06T09:47:07;7.00;6.00;4.75
72509;PMS5003;60532;56.114;40.350;2023-08-06T09:49:07;6.00;6.00;4.00
72509;PMS5003;60532;56.114;40.350;2023-08-06T09:51:09;8.00;8.00;5.50
72509;PMS5003;60532;56.114;40.350;2023-08-06T09:53:11;9.25;8.25;5.00
72509;PMS5003;60532;56.114;40.350;2023-08-06T09:55:12;8.00;8.00;6.00
72509;PMS5003;60532;56.114;40.350;2023-08-06T09:57:13;10.50;10.50;6.50
72509;PMS5003;60532;56.114;40.350;2023-08-06T09:59:14;10.00;10.00;7.00
72509;PMS5003;60532;56.114;40.350;2023-08-06T10:01:16;10.50;8.00;6.25
72509;PMS5003;60532;56.114;40.350;2023-08-06T10:03:17;7.00;7.00;4.75
72509;PMS5003;60532;56.114;40.350;2023-08-06T10:05:18;8.75;8.75;5.50
72509;PMS5003;60532;56.114;40.350;2023-08-06T10:07:18;9.00;7.67;5.67
72509;PMS5003;60532;56.114;40.350;2023-08-06T10:09:19;9.67;8.00;6.00
72509;PMS5003;60532;56.114;40.350;2023-08-06T10:11:21;9.50;9.50;6.25
72509;PMS5003;60532;56.114;40.350;2023-08-06T10:13:22;7.25;7.25;5.00
72509;PMS5003;60532;56.114;40.350;2023-08-06T10:15:26;10.50;8.00;5.75
72509;PMS5003;60532;56.114;40.350;2023-08-06T10:17:27;10.00;8.75;6.25
72509;PMS5003;60532;56.114;40.350;2023-08-06T10:19:28;10.25;10.25;7.75
72509;PMS5003;60532;56.114;40.350;2023-08-06T10:21:30;9.75;9.75;6.25
72509;PMS5003;60532;56.114;40.350;2023-08-06T10:23:35;8.00;6.25;4.25
72509;PMS5003;60532;56.114;40.350;2023-08-06T10:25:39;8.75;8.75;6.00
72509;PMS5003;60532;56.114;40.350;2023-08-06T10:27:52;9.00;9.00;6.00
72509;PMS5003;60532;56.114;40.350;2023-08-06T10:29:53;8.00;7.75;5.75
72509;PMS5003;60532;56.114;40.350;2023-08-06T10:31:54;8.00;8.00;5.67
72509;PMS5003;60532;56.114;40.350;2023-08-06T10:33:55;7.00;7.00;4.75
72509;PMS5003;60532;56.114;40.350;2023-08-06T10:35:56;9.33;8.67;5.67
72509;PMS5003;60532;56.114;40.350;2023-08-06T10:38:04;8.50;8.50;5.75
72509;PMS5003;60532;56.114;40.350;2023-08-06T10:40:06;7.75;7.75;5.00
72509;PMS5003;60532;56.114;40.350;2023-08-06T10:42:18;8.00;8.00;6.00
72509;PMS5003;60532;56.114;40.350;2023-08-06T10:44:19;9.25;8.50;5.75
72509;PMS5003;60532;56.114;40.350;2023-08-06T10:46:23;9.75;7.00;5.00
72509;PMS5003;60532;56.114;40.350;2023-08-06T10:50:30;8.00;8.00;5.00
72509;PMS5003;60532;56.114;40.350;2023-08-06T10:52:31;10.75;10.75;6.00
72509;PMS5003;60532;56.114;40.350;2023-08-06T10:54:32;7.33;7.33;5.00
72509;PMS5003;60532;56.114;40.350;2023-08-06T10:56:32;9.67;9.67;5.00
72509;PMS5003;60532;56.114;40.350;2023-08-06T10:58:39;11.50;10.75;5.75
72509;PMS5003;60532;56.114;40.350;2023-08-06T11:00:40;10.00;9.33;7.00
72509;PMS5003;60532;56.114;40.350;2023-08-06T11:02:40;8.67;8.67;6.00
72509;PMS5003;60532;56.114;40.350;2023-08-06T11:04:41;10.00;10.00;6.25
72509;PMS5003;60532;56.114;40.350;2023-08-06T11:06:42;8.75;8.25;4.75
72509;PMS5003;60532;56.114;40.350;2023-08-06T11:08:47;8.33;8.33;6.33
72509;PMS5003;60532;56.114;40.350;2023-08-06T11:10:47;11.00;10.00;6.50
72509;PMS5003;60532;56.114;40.350;2023-08-06T11:12:48;10.33;9.33;5.00
72509;PMS5003;60532;56.114;40.350;2023-08-06T11:14:51;8.00;8.00;5.00
72509;PMS5003;60532;56.114;40.350;2023-08-06T11:16:51;10.25;9.75;5.50
72509;PMS5003;60532;56.114;40.350;2023-08-06T11:18:52;7.00;7.00;3.00
72509;PMS5003;60532;56.114;40.350;2023-08-06T11:20:58;11.25;9.50;6.75
72509;PMS5003;60532;56.114;40.350;2023-08-06T11:22:58;7.75;7.75;5.50
72509;PMS5003;60532;56.114;40.350;2023-08-06T11:24:59;6.33;6.33;4.67
72509;PMS5003;60532;56.114;40.350;2023-08-06T11:27:01;9.00;8.75;6.00
72509;PMS5003;60532;56.114;40.350;2023-08-06T11:29:02;8.67;7.00;6.33
72509;PMS5003;60532;56.114;40.350;2023-08-06T11:31:02;8.50;8.50;4.25
72509;PMS5003;60532;56.114;40.350;2023-08-06T11:33:06;8.25;8.00;6.00
72509;PMS5003;60532;56.114;40.350;2023-08-06T11:35:10;13.00;11.00;6.00
72509;PMS5003;60532;56.114;40.350;2023-08-06T11:37:11;7.75;7.50;6.50